sensor_id;sensor_type;location;lat;lon;timestamp;temperature;humidity
29501;DHT22;16450;50.288;10.966;2024-02-21T00:01:28;6.30;99.90
29501;DHT22;16450;50.288;10.966;2024-02-21T00:04:30;6.30;99.90
29501;DHT22;16450;50.288;10.966;2024-02-21T00:07:31;6.30;99.90
29501;DHT22;16450;50.288;10.966;2024-02-21T00:10:33;6.40;99.90
29501;DHT22;16450;50.288;10.966;2024-02-21T00:13:36;6.30;99.90
29501;DHT22;16450;50.288;10.966;2024-02-21T00:16:38;6.40;99.90
29501;DHT22;16450;50.288;10.966;2024-02-21T00:19:40;6.40;99.90
29501;DHT22;16450;50.288;10.966;2024-02-21T00:22:42;6.40;99.90
29501;DHT22;16450;50.288;10.966;2024-02-21T00:25:44;6.50;99.90
29501;DHT22;16450;50.288;10.966;2024-02-21T00:28:47;6.40;99.90
29501;DHT22;16450;50.288;10.966;2024-02-21T00:31:49;6.40;99.90
29501;DHT22;16450;50.288;10.966;2024-02-21T00:34:52;6.50;99.90
29501;DHT22;16450;50.288;10.966;2024-02-21T00:37:54;6.50;99.90
29501;DHT22;16450;50.288;10.966;2024-02-21T00:40:56;6.50;99.90
29501;DHT22;16450;50.288;10.966;2024-02-21T00:43:57;6.50;99.90
29501;DHT22;16450;50.288;10.966;2024-02-21T00:46:59;6.50;99.90
29501;DHT22;16450;50.288;10.966;2024-02-21T00:50:01;6.50;99.90
29501;DHT22;16450;50.288;10.966;2024-02-21T00:53:05;6.50;99.90
29501;DHT22;16450;50.288;10.966;2024-02-21T00:56:07;6.50;99.90
29501;DHT22;16450;50.288;10.966;2024-02-21T00:59:09;6.50;99.90
29501;DHT22;16450;50.288;10.966;2024-02-21T01:02:10;6.50;99.90
29501;DHT22;16450;50.288;10.966;2024-02-21T01:05:12;6.50;99.90
29501;DHT22;16450;50.288;10.966;2024-02-21T01:08:14;6.50;99.90
29501;DHT22;16450;50.288;10.966;2024-02-21T01:11:17;6.50;99.90
29501;DHT22;16450;50.288;10.966;2024-02-21T01:14:19;6.50;99.90
29501;DHT22;16450;50.288;10.966;2024-02-21T01:17:21;6.50;99.90
29501;DHT22;16450;50.288;10.966;2024-02-21T01:20:23;6.50;99.90
29501;DHT22;16450;50.288;10.966;2024-02-21T01:23:25;6.50;99.90
29501;DHT22;16450;50.288;10.966;2024-02-21T01:26:28;6.50;99.90
29501;DHT22;16450;50.288;10.966;2024-02-21T01:29:29;6.50;99.90
29501;DHT22;16450;50.288;10.966;2024-02-21T01:32:31;6.50;99.90
29501;DHT22;16450;50.288;10.966;2024-02-21T01:35:34;6.50;99.90
29501;DHT22;16450;50.288;10.966;2024-02-21T01:38:36;6.50;99.90
29501;DHT22;16450;50.288;10.966;2024-02-21T01:41:38;6.50;99.90
29501;DHT22;16450;50.288;10.966;2024-02-21T01:44:40;6.50;99.90
29501;DHT22;16450;50.288;10.966;2024-02-21T01:47:41;6.50;99.90
29501;DHT22;16450;50.288;10.966;2024-02-21T01:50:45;6.50;99.90
29501;DHT22;16450;50.288;10.966;2024-02-21T01:53:48;6.50;99.90
29501;DHT22;16450;50.288;10.966;2024-02-21T01:56:51;6.50;99.90
29501;DHT22;16450;50.288;10.966;2024-02-21T01:59:54;6.50;99.90
29501;DHT22;16450;50.288;10.966;2024-02-21T02:02:56;6.50;99.90
29501;DHT22;16450;50.288;10.966;2024-02-21T02:05:59;6.50;99.90
29501;DHT22;16450;50.288;10.966;2024-02-21T02:09:01;6.50;99.90
29501;DHT22;16450;50.288;10.966;2024-02-21T02:12:03;6.50;99.90
29501;DHT22;16450;50.288;10.966;2024-02-21T02:15:05;6.50;99.90
29501;DHT22;16450;50.288;10.966;2024-02-21T02:18:07;6.50;99.90
29501;DHT22;16450;50.288;10.966;2024-02-21T02:21:23;6.50;99.90
29501;DHT22;16450;50.288;10.966;2024-02-21T02:24:26;6.50;99.90
29501;DHT22;16450;50.288;10.966;2024-02-21T02:27:28;6.50;99.90
29501;DHT22;16450;50.288;10.966;2024-02-21T02:30:34;6.50;99.90
29501;DHT22;16450;50.288;10.966;2024-02-21T02:33:36;6.50;99.90
29501;DHT22;16450;50.288;10.966;2024-02-21T02:36:38;6.40;99.90
29501;DHT22;16450;50.288;10.966;2024-02-21T02:39:39;6.40;99.90
29501;DHT22;16450;50.288;10.966;2024-02-21T02:42:41;6.40;99.90
29501;DHT22;16450;50.288;10.966;2024-02-21T02:45:43;6.40;99.90
29501;DHT22;16450;50.288;10.966;2024-02-21T02:48:45;6.40;99.90
29501;DHT22;16450;50.288;10.966;2024-02-21T02:51:47;6.40;99.90
29501;DHT22;16450;50.288;10.966;2024-02-21T02:54:49;6.40;99.90
29501;DHT22;16450;50.288;10.966;2024-02-21T02:57:53;6.40;99.90
29501;DHT22;16450;50.288;10.966;2024-02-21T03:00:55;6.40;99.90
29501;DHT22;16450;50.288;10.966;2024-02-21T03:03:57;6.40;99.90
29501;DHT22;16450;50.288;10.966;2024-02-21T03:06:59;6.30;99.90
29501;DHT22;16450;50.288;10.966;2024-02-21T03:10:01;6.40;99.90
29501;DHT22;16450;50.288;10.966;2024-02-21T03:13:03;6.40;99.90
29501;DHT22;16450;50.288;10.966;2024-02-21T03:16:05;6.30;99.90
29501;DHT22;16450;50.288;10.966;2024-02-21T03:19:07;6.30;99.90
29501;DHT22;16450;50.288;10.966;2024-02-21T03:22:09;6.30;99.90
29501;DHT22;16450;50.288;10.966;2024-02-21T03:25:12;6.40;99.90
29501;DHT22;16450;50.288;10.966;2024-02-21T03:28:16;6.30;99.90
29501;DHT22;16450;50.288;10.966;2024-02-21T03:31:18;6.30;99.90
29501;DHT22;16450;50.288;10.966;2024-02-21T03:34:20;6.30;99.90
29501;DHT22;16450;50.288;10.966;2024-02-21T03:37:22;6.30;99.90
29501;DHT22;16450;50.288;10.966;2024-02-21T03:40:24;6.30;99.90
29501;DHT22;16450;50.288;10.966;2024-02-21T03:43:26;6.30;99.90
29501;DHT22;16450;50.288;10.966;2024-02-21T03:46:28;6.30;99.90
29501;DHT22;16450;50.288;10.966;2024-02-21T03:49:30;6.30;99.90
29501;DHT22;16450;50.288;10.966;2024-02-21T03:52:32;6.30;99.90
29501;DHT22;16450;50.288;10.966;2024-02-21T03:55:34;6.30;99.90
29501;DHT22;16450;50.288;10.966;2024-02-21T03:58:36;6.30;99.90
29501;DHT22;16450;50.288;10.966;2024-02-21T04:01:37;6.30;99.90
29501;DHT22;16450;50.288;10.966;2024-02-21T04:04:43;6.30;99.90
29501;DHT22;16450;50.288;10.966;2024-02-21T04:07:48;6.30;99.90
29501;DHT22;16450;50.288;10.966;2024-02-21T04:10:49;6.30;99.90
29501;DHT22;16450;50.288;10.966;2024-02-21T04:13:51;6.30;99.90
29501;DHT22;16450;50.288;10.966;2024-02-21T04:16:53;6.30;99.90
29501;DHT22;16450;50.288;10.966;2024-02-21T04:20:04;6.30;99.90
29501;DHT22;16450;50.288;10.966;2024-02-21T04:23:12;6.30;99.90
29501;DHT22;16450;50.288;10.966;2024-02-21T04:26:17;6.30;99.90
29501;DHT22;16450;50.288;10.966;2024-02-21T04:29:19;6.20;99.90
29501;DHT22;16450;50.288;10.966;2024-02-21T04:32:21;6.20;99.90
29501;DHT22;16450;50.288;10.966;2024-02-21T04:35:23;6.20;99.90
29501;DHT22;16450;50.288;10.966;2024-02-21T04:38:26;6.20;99.90
29501;DHT22;16450;50.288;10.966;2024-02-21T04:41:29;6.20;99.90
29501;DHT22;16450;50.288;10.966;2024-02-21T04:44:31;6.20;99.90
29501;DHT22;16450;50.288;10.966;2024-02-21T04:47:33;6.20;99.90
29501;DHT22;16450;50.288;10.966;2024-02-21T04:50:36;6.20;99.90
29501;DHT22;16450;50.288;10.966;2024-02-21T04:53:38;6.20;99.90
29501;DHT22;16450;50.288;10.966;2024-02-21T04:56:40;6.20;99.90
29501;DHT22;16450;50.288;10.966;2024-02-21T04:59:44;6.20;99.90
29501;DHT22;16450;50.288;10.966;2024-02-21T05:02:46;6.20;99.90
29501;DHT22;16450;50.288;10.966;2024-02-21T05:05:48;6.20;99.90
29501;DHT22;16450;50.288;10.966;2024-02-21T05:08:50;6.20;99.90
29501;DHT22;16450;50.288;10.966;2024-02-21T05:11:51;6.10;99.90
29501;DHT22;16450;50.288;10.966;2024-02-21T05:14:53;6.20;99.90
29501;DHT22;16450;50.288;10.966;2024-02-21T05:17:55;6.20;99.90
29501;DHT22;16450;50.288;10.966;2024-02-21T05:20:58;6.10;99.90
29501;DHT22;16450;50.288;10.966;2024-02-21T05:24:00;6.20;99.90
29501;DHT22;16450;50.288;10.966;2024-02-21T05:27:02;6.10;99.90
29501;DHT22;16450;50.288;10.966;2024-02-21T05:30:04;6.10;99.90
29501;DHT22;16450;50.288;10.966;2024-02-21T05:33:08;6.20;99.90
29501;DHT22;16450;50.288;10.966;2024-02-21T05:36:11;6.20;99.90
29501;DHT22;16450;50.288;10.966;2024-02-21T05:39:13;6.20;99.90
29501;DHT22;16450;50.288;10.966;2024-02-21T05:42:16;6.20;99.90
29501;DHT22;16450;50.288;10.966;2024-02-21T05:45:18;6.20;99.90
29501;DHT22;16450;50.288;10.966;2024-02-21T05:48:21;6.20;99.90
29501;DHT22;16450;50.288;10.966;2024-02-21T05:51:24;6.20;99.90
29501;DHT22;16450;50.288;10.966;2024-02-21T05:54:25;6.20;99.90
29501;DHT22;16450;50.288;10.966;2024-02-21T05:57:27;6.20;99.90
29501;DHT22;16450;50.288;10.966;2024-02-21T06:00:29;6.20;99.90
29501;DHT22;16450;50.288;10.966;2024-02-21T06:03:31;6.20;99.90
29501;DHT22;16450;50.288;10.966;2024-02-21T06:06:33;6.20;99.90
29501;DHT22;16450;50.288;10.966;2024-02-21T06:09:35;6.20;99.90
29501;DHT22;16450;50.288;10.966;2024-02-21T06:12:37;6.20;99.90
29501;DHT22;16450;50.288;10.966;2024-02-21T06:15:39;6.20;99.90
29501;DHT22;16450;50.288;10.966;2024-02-21T06:18:41;6.20;99.90
29501;DHT22;16450;50.288;10.966;2024-02-21T06:21:43;6.20;99.90
29501;DHT22;16450;50.288;10.966;2024-02-21T06:24:44;6.20;99.90
29501;DHT22;16450;50.288;10.966;2024-02-21T06:27:47;6.20;99.90
29501;DHT22;16450;50.288;10.966;2024-02-21T06:30:48;6.20;99.90
29501;DHT22;16450;50.288;10.966;2024-02-21T06:33:50;6.20;99.90
29501;DHT22;16450;50.288;10.966;2024-02-21T06:36:52;6.20;99.90
29501;DHT22;16450;50.288;10.966;2024-02-21T06:39:54;6.30;99.90
29501;DHT22;16450;50.288;10.966;2024-02-21T06:42:56;6.20;99.90
29501;DHT22;16450;50.288;10.966;2024-02-21T06:45:58;6.30;99.90
29501;DHT22;16450;50.288;10.966;2024-02-21T06:49:00;6.30;99.90
29501;DHT22;16450;50.288;10.966;2024-02-21T06:52:04;6.30;99.90
29501;DHT22;16450;50.288;10.966;2024-02-21T06:55:06;6.30;99.90
29501;DHT22;16450;50.288;10.966;2024-02-21T06:58:08;6.30;99.90
29501;DHT22;16450;50.288;10.966;2024-02-21T07:01:13;6.40;99.90
29501;DHT22;16450;50.288;10.966;2024-02-21T07:04:15;6.40;99.90
29501;DHT22;16450;50.288;10.966;2024-02-21T07:07:17;6.40;99.90
29501;DHT22;16450;50.288;10.966;2024-02-21T07:10:20;6.50;99.90
29501;DHT22;16450;50.288;10.966;2024-02-21T07:13:22;6.50;99.90
29501;DHT22;16450;50.288;10.966;2024-02-21T07:16:24;6.50;99.90
29501;DHT22;16450;50.288;10.966;2024-02-21T07:19:28;6.50;99.90
29501;DHT22;16450;50.288;10.966;2024-02-21T07:22:30;6.50;99.90
29501;DHT22;16450;50.288;10.966;2024-02-21T07:25:32;6.50;99.90
29501;DHT22;16450;50.288;10.966;2024-02-21T07:28:33;6.50;99.90
29501;DHT22;16450;50.288;10.966;2024-02-21T07:31:42;6.50;99.90
29501;DHT22;16450;50.288;10.966;2024-02-21T07:34:44;6.60;99.90
29501;DHT22;16450;50.288;10.966;2024-02-21T07:37:46;6.60;99.90
29501;DHT22;16450;50.288;10.966;2024-02-21T07:40:48;6.60;99.90
29501;DHT22;16450;50.288;10.966;2024-02-21T07:43:50;6.60;99.90
29501;DHT22;16450;50.288;10.966;2024-02-21T07:46:52;6.60;99.90
29501;DHT22;16450;50.288;10.966;2024-02-21T07:49:54;6.60;99.90
29501;DHT22;16450;50.288;10.966;2024-02-21T07:52:56;6.60;99.90
29501;DHT22;16450;50.288;10.966;2024-02-21T07:55:58;6.60;99.90
29501;DHT22;16450;50.288;10.966;2024-02-21T07:59:00;6.70;99.90
29501;DHT22;16450;50.288;10.966;2024-02-21T08:02:02;6.60;99.90
29501;DHT22;16450;50.288;10.966;2024-02-21T08:05:04;6.70;99.90
29501;DHT22;16450;50.288;10.966;2024-02-21T08:08:07;6.70;99.90
29501;DHT22;16450;50.288;10.966;2024-02-21T08:11:10;6.70;99.90
29501;DHT22;16450;50.288;10.966;2024-02-21T08:14:12;6.80;99.90
29501;DHT22;16450;50.288;10.966;2024-02-21T08:17:14;6.80;99.90
29501;DHT22;16450;50.288;10.966;2024-02-21T08:20:15;6.80;99.90
29501;DHT22;16450;50.288;10.966;2024-02-21T08:23:19;6.80;99.90
29501;DHT22;16450;50.288;10.966;2024-02-21T08:26:21;6.80;99.90
29501;DHT22;16450;50.288;10.966;2024-02-21T08:29:23;6.80;99.90
29501;DHT22;16450;50.288;10.966;2024-02-21T08:32:24;6.80;99.90
29501;DHT22;16450;50.288;10.966;2024-02-21T08:35:26;6.90;99.90
29501;DHT22;16450;50.288;10.966;2024-02-21T08:38:28;6.90;99.90
29501;DHT22;16450;50.288;10.966;2024-02-21T08:41:31;6.90;99.90
29501;DHT22;16450;50.288;10.966;2024-02-21T08:44:52;6.90;99.90
29501;DHT22;16450;50.288;10.966;2024-02-21T08:47:54;6.90;99.90
29501;DHT22;16450;50.288;10.966;2024-02-21T08:50:56;7.00;99.90
29501;DHT22;16450;50.288;10.966;2024-02-21T08:53:58;7.00;99.90
29501;DHT22;16450;50.288;10.966;2024-02-21T08:57:01;7.00;99.90
29501;DHT22;16450;50.288;10.966;2024-02-21T09:00:06;7.10;99.90
29501;DHT22;16450;50.288;10.966;2024-02-21T09:03:11;7.20;99.90
29501;DHT22;16450;50.288;10.966;2024-02-21T09:06:13;7.20;99.90
29501;DHT22;16450;50.288;10.966;2024-02-21T09:09:15;7.20;99.90
29501;DHT22;16450;50.288;10.966;2024-02-21T09:12:17;7.20;99.90
29501;DHT22;16450;50.288;10.966;2024-02-21T09:15:19;7.20;99.90
29501;DHT22;16450;50.288;10.966;2024-02-21T09:18:21;7.30;99.90
29501;DHT22;16450;50.288;10.966;2024-02-21T09:21:23;7.30;99.90
29501;DHT22;16450;50.288;10.966;2024-02-21T09:24:25;7.30;99.90
29501;DHT22;16450;50.288;10.966;2024-02-21T09:27:27;7.30;99.90
29501;DHT22;16450;50.288;10.966;2024-02-21T09:30:29;7.30;99.90
29501;DHT22;16450;50.288;10.966;2024-02-21T09:33:30;7.30;99.90
29501;DHT22;16450;50.288;10.966;2024-02-21T09:36:34;7.30;99.90
29501;DHT22;16450;50.288;10.966;2024-02-21T09:39:35;7.40;99.90
29501;DHT22;16450;50.288;10.966;2024-02-21T09:42:39;7.40;99.90
29501;DHT22;16450;50.288;10.966;2024-02-21T09:45:45;7.50;99.90
29501;DHT22;16450;50.288;10.966;2024-02-21T09:48:56;7.70;99.90
29501;DHT22;16450;50.288;10.966;2024-02-21T09:52:02;7.80;99.90
29501;DHT22;16450;50.288;10.966;2024-02-21T09:55:06;7.80;99.90
29501;DHT22;16450;50.288;10.966;2024-02-21T09:58:10;7.90;99.90
29501;DHT22;16450;50.288;10.966;2024-02-21T10:01:13;7.90;99.90
29501;DHT22;16450;50.288;10.966;2024-02-21T10:04:34;8.00;99.90
29501;DHT22;16450;50.288;10.966;2024-02-21T10:07:36;8.00;99.90
29501;DHT22;16450;50.288;10.966;2024-02-21T10:10:46;8.20;99.90
29501;DHT22;16450;50.288;10.966;2024-02-21T10:13:48;8.30;99.90
29501;DHT22;16450;50.288;10.966;2024-02-21T10:16:57;8.40;99.90
29501;DHT22;16450;50.288;10.966;2024-02-21T10:20:12;8.50;99.90
29501;DHT22;16450;50.288;10.966;2024-02-21T10:23:15;8.60;99.90
29501;DHT22;16450;50.288;10.966;2024-02-21T10:26:19;8.70;99.90
29501;DHT22;16450;50.288;10.966;2024-02-21T10:29:21;8.70;99.90
29501;DHT22;16450;50.288;10.966;2024-02-21T10:32:22;8.70;99.90
29501;DHT22;16450;50.288;10.966;2024-02-21T10:35:29;8.80;99.90
29501;DHT22;16450;50.288;10.966;2024-02-21T10:38:31;8.90;99.90
29501;DHT22;16450;50.288;10.966;2024-02-21T10:41:36;9.00;99.90
29501;DHT22;16450;50.288;10.966;2024-02-21T10:44:39;9.20;99.90
29501;DHT22;16450;50.288;10.966;2024-02-21T10:47:44;9.30;99.90
29501;DHT22;16450;50.288;10.966;2024-02-21T10:51:17;9.40;99.90
29501;DHT22;16450;50.288;10.966;2024-02-21T10:54:43;9.60;99.90
29501;DHT22;16450;50.288;10.966;2024-02-21T10:57:46;9.70;99.90
29501;DHT22;16450;50.288;10.966;2024-02-21T11:00:49;9.70;99.90
29501;DHT22;16450;50.288;10.966;2024-02-21T11:03:54;9.70;99.90
29501;DHT22;16450;50.288;10.966;2024-02-21T11:06:57;9.70;99.90
29501;DHT22;16450;50.288;10.966;2024-02-21T11:09:59;9.70;99.90
29501;DHT22;16450;50.288;10.966;2024-02-21T11:13:08;9.70;99.90
29501;DHT22;16450;50.288;10.966;2024-02-21T11:16:12;9.70;99.90
29501;DHT22;16450;50.288;10.966;2024-02-21T11:19:25;9.60;99.90
29501;DHT22;16450;50.288;10.966;2024-02-21T11:22:27;9.60;99.90
29501;DHT22;16450;50.288;10.966;2024-02-21T11:25:33;9.60;99.90
29501;DHT22;16450;50.288;10.966;2024-02-21T11:28:36;9.60;99.90
29501;DHT22;16450;50.288;10.966;2024-02-21T11:31:41;9.60;99.90
29501;DHT22;16450;50.288;10.966;2024-02-21T11:34:57;9.70;99.90
29501;DHT22;16450;50.288;10.966;2024-02-21T11:38:13;9.70;99.90
29501;DHT22;16450;50.288;10.966;2024-02-21T11:41:19;9.70;99.90
29501;DHT22;16450;50.288;10.966;2024-02-21T11:44:22;9.70;99.90
29501;DHT22;16450;50.288;10.966;2024-02-21T11:47:24;9.70;99.90
29501;DHT22;16450;50.288;10.966;2024-02-21T11:50:27;9.70;99.90
29501;DHT22;16450;50.288;10.966;2024-02-21T11:53:29;9.80;99.90
29501;DHT22;16450;50.288;10.966;2024-02-21T11:56:36;9.80;99.90
29501;DHT22;16450;50.288;10.966;2024-02-21T11:59:40;9.90;99.90
29501;DHT22;16450;50.288;10.966;2024-02-21T12:02:43;9.90;99.90
29501;DHT22;16450;50.288;10.966;2024-02-21T12:05:45;10.10;99.90
29501;DHT22;16450;50.288;10.966;2024-02-21T12:08:48;10.10;99.90
29501;DHT22;16450;50.288;10.966;2024-02-21T12:12:04;10.10;99.90
29501;DHT22;16450;50.288;10.966;2024-02-21T12:15:07;10.20;99.90
29501;DHT22;16450;50.288;10.966;2024-02-21T12:18:10;10.20;99.90
29501;DHT22;16450;50.288;10.966;2024-02-21T12:21:12;10.10;99.90
29501;DHT22;16450;50.288;10.966;2024-02-21T12:24:16;10.10;99.90
29501;DHT22;16450;50.288;10.966;2024-02-21T12:27:18;10.10;99.90
29501;DHT22;16450;50.288;10.966;2024-02-21T12:30:21;10.10;99.90
29501;DHT22;16450;50.288;10.966;2024-02-21T12:33:23;10.10;99.90
29501;DHT22;16450;50.288;10.966;2024-02-21T12:36:25;10.10;99.90
29501;DHT22;16450;50.288;10.966;2024-02-21T12:39:27;10.00;99.90
29501;DHT22;16450;50.288;10.966;2024-02-21T12:42:30;10.00;99.90
29501;DHT22;16450;50.288;10.966;2024-02-21T12:45:32;10.00;99.90
29501;DHT22;16450;50.288;10.966;2024-02-21T12:48:36;10.10;99.90
29501;DHT22;16450;50.288;10.966;2024-02-21T12:51:38;10.00;99.90
29501;DHT22;16450;50.288;10.966;2024-02-21T12:54:41;10.00;99.90
29501;DHT22;16450;50.288;10.966;2024-02-21T12:57:44;10.00;99.90
29501;DHT22;16450;50.288;10.966;2024-02-21T13:00:46;10.00;99.90
29501;DHT22;16450;50.288;10.966;2024-02-21T13:03:47;10.00;99.90
29501;DHT22;16450;50.288;10.966;2024-02-21T13:06:49;10.00;99.90
29501;DHT22;16450;50.288;10.966;2024-02-21T13:09:51;10.00;99.90
29501;DHT22;16450;50.288;10.966;2024-02-21T13:12:53;10.10;99.90
29501;DHT22;16450;50.288;10.966;2024-02-21T13:15:56;10.10;99.90
29501;DHT22;16450;50.288;10.966;2024-02-21T13:18:58;10.10;99.90
29501;DHT22;16450;50.288;10.966;2024-02-21T13:22:00;10.20;99.90
29501;DHT22;16450;50.288;10.966;2024-02-21T13:25:05;10.20;99.90
29501;DHT22;16450;50.288;10.966;2024-02-21T13:28:08;10.30;99.90
29501;DHT22;16450;50.288;10.966;2024-02-21T13:31:11;10.30;99.90
29501;DHT22;16450;50.288;10.966;2024-02-21T13:34:13;10.40;99.90
29501;DHT22;16450;50.288;10.966;2024-02-21T13:37:15;10.50;99.90
29501;DHT22;16450;50.288;10.966;2024-02-21T13:40:17;10.60;99.90
29501;DHT22;16450;50.288;10.966;2024-02-21T13:43:19;10.70;99.90
29501;DHT22;16450;50.288;10.966;2024-02-21T13:46:21;10.70;99.90
29501;DHT22;16450;50.288;10.966;2024-02-21T13:49:23;10.80;99.90
29501;DHT22;16450;50.288;10.966;2024-02-21T13:52:25;10.80;99.90
29501;DHT22;16450;50.288;10.966;2024-02-21T13:55:30;10.80;99.90
29501;DHT22;16450;50.288;10.966;2024-02-21T13:58:32;10.90;99.90
29501;DHT22;16450;50.288;10.966;2024-02-21T14:01:34;10.80;99.90
29501;DHT22;16450;50.288;10.966;2024-02-21T14:04:37;10.90;99.90
29501;DHT22;16450;50.288;10.966;2024-02-21T14:07:39;10.80;99.90
29501;DHT22;16450;50.288;10.966;2024-02-21T14:10:41;10.80;99.90
29501;DHT22;16450;50.288;10.966;2024-02-21T14:13:43;10.70;99.90
29501;DHT22;16450;50.288;10.966;2024-02-21T14:16:46;10.70;99.90
29501;DHT22;16450;50.288;10.966;2024-02-21T14:19:49;10.70;99.90
29501;DHT22;16450;50.288;10.966;2024-02-21T14:22:51;10.70;99.90
29501;DHT22;16450;50.288;10.966;2024-02-21T14:25:53;10.70;99.90
29501;DHT22;16450;50.288;10.966;2024-02-21T14:28:55;10.70;99.90
29501;DHT22;16450;50.288;10.966;2024-02-21T14:31:58;10.70;99.90
29501;DHT22;16450;50.288;10.966;2024-02-21T14:35:00;10.70;99.90
29501;DHT22;16450;50.288;10.966;2024-02-21T14:38:07;10.70;99.90
29501;DHT22;16450;50.288;10.966;2024-02-21T14:41:10;10.60;99.90
29501;DHT22;16450;50.288;10.966;2024-02-21T14:44:13;10.60;99.90
29501;DHT22;16450;50.288;10.966;2024-02-21T14:47:16;10.60;99.90
29501;DHT22;16450;50.288;10.966;2024-02-21T14:50:18;10.50;99.90
29501;DHT22;16450;50.288;10.966;2024-02-21T14:53:20;10.50;99.90
29501;DHT22;16450;50.288;10.966;2024-02-21T14:56:22;10.50;99.90
29501;DHT22;16450;50.288;10.966;2024-02-21T14:59:25;10.40;99.90
29501;DHT22;16450;50.288;10.966;2024-02-21T15:02:35;10.40;99.90
29501;DHT22;16450;50.288;10.966;2024-02-21T15:05:37;10.40;99.90
29501;DHT22;16450;50.288;10.966;2024-02-21T15:08:40;10.40;99.90
29501;DHT22;16450;50.288;10.966;2024-02-21T15:11:43;10.30;99.90
29501;DHT22;16450;50.288;10.966;2024-02-21T15:14:45;10.30;99.90
29501;DHT22;16450;50.288;10.966;2024-02-21T15:17:47;10.30;99.90
29501;DHT22;16450;50.288;10.966;2024-02-21T15:20:48;10.20;99.90
29501;DHT22;16450;50.288;10.966;2024-02-21T15:23:50;10.20;99.90
29501;DHT22;16450;50.288;10.966;2024-02-21T15:26:52;10.20;99.90
29501;DHT22;16450;50.288;10.966;2024-02-21T15:29:54;10.10;99.90
29501;DHT22;16450;50.288;10.966;2024-02-21T15:32:56;10.10;99.90
29501;DHT22;16450;50.288;10.966;2024-02-21T15:36:03;10.10;99.90
29501;DHT22;16450;50.288;10.966;2024-02-21T15:39:05;10.10;99.90
29501;DHT22;16450;50.288;10.966;2024-02-21T15:42:07;10.10;99.90
29501;DHT22;16450;50.288;10.966;2024-02-21T15:45:09;10.10;99.90
29501;DHT22;16450;50.288;10.966;2024-02-21T15:48:11;10.00;99.90
29501;DHT22;16450;50.288;10.966;2024-02-21T15:51:15;10.00;99.90
29501;DHT22;16450;50.288;10.966;2024-02-21T15:54:17;10.00;99.90
29501;DHT22;16450;50.288;10.966;2024-02-21T15:57:24;9.90;99.90
29501;DHT22;16450;50.288;10.966;2024-02-21T16:00:26;9.90;99.90
29501;DHT22;16450;50.288;10.966;2024-02-21T16:03:28;9.90;99.90
29501;DHT22;16450;50.288;10.966;2024-02-21T16:06:30;9.90;99.90
29501;DHT22;16450;50.288;10.966;2024-02-21T16:09:31;9.90;99.90
29501;DHT22;16450;50.288;10.966;2024-02-21T16:12:33;9.80;99.90
29501;DHT22;16450;50.288;10.966;2024-02-21T16:15:35;9.80;99.90
29501;DHT22;16450;50.288;10.966;2024-02-21T16:18:38;9.80;99.90
29501;DHT22;16450;50.288;10.966;2024-02-21T16:21:40;9.70;99.90
29501;DHT22;16450;50.288;10.966;2024-02-21T16:24:41;9.70;99.90
29501;DHT22;16450;50.288;10.966;2024-02-21T16:27:43;9.70;99.90
29501;DHT22;16450;50.288;10.966;2024-02-21T16:30:45;9.70;99.90
29501;DHT22;16450;50.288;10.966;2024-02-21T16:33:47;9.60;99.90
29501;DHT22;16450;50.288;10.966;2024-02-21T16:36:49;9.60;99.90
29501;DHT22;16450;50.288;10.966;2024-02-21T16:39:51;9.60;99.90
29501;DHT22;16450;50.288;10.966;2024-02-21T16:42:54;9.50;99.90
29501;DHT22;16450;50.288;10.966;2024-02-21T16:45:56;9.50;99.90
29501;DHT22;16450;50.288;10.966;2024-02-21T16:48:57;9.40;99.90
29501;DHT22;16450;50.288;10.966;2024-02-21T16:52:01;9.40;99.90
29501;DHT22;16450;50.288;10.966;2024-02-21T16:55:04;9.30;99.90
29501;DHT22;16450;50.288;10.966;2024-02-21T16:58:07;9.30;99.90
29501;DHT22;16450;50.288;10.966;2024-02-21T17:01:09;9.20;99.90
29501;DHT22;16450;50.288;10.966;2024-02-21T17:04:15;9.10;99.90
29501;DHT22;16450;50.288;10.966;2024-02-21T17:07:17;9.10;99.90
29501;DHT22;16450;50.288;10.966;2024-02-21T17:10:19;9.10;99.90
29501;DHT22;16450;50.288;10.966;2024-02-21T17:13:21;9.00;99.90
29501;DHT22;16450;50.288;10.966;2024-02-21T17:16:24;8.90;99.90
29501;DHT22;16450;50.288;10.966;2024-02-21T17:19:26;8.80;99.90
29501;DHT22;16450;50.288;10.966;2024-02-21T17:22:27;8.80;99.90
29501;DHT22;16450;50.288;10.966;2024-02-21T17:25:32;8.80;99.90
29501;DHT22;16450;50.288;10.966;2024-02-21T17:28:34;8.70;99.90
29501;DHT22;16450;50.288;10.966;2024-02-21T17:31:36;8.70;99.90
29501;DHT22;16450;50.288;10.966;2024-02-21T17:34:39;8.70;99.90
29501;DHT22;16450;50.288;10.966;2024-02-21T17:37:41;8.60;99.90
29501;DHT22;16450;50.288;10.966;2024-02-21T17:40:43;8.60;99.90
29501;DHT22;16450;50.288;10.966;2024-02-21T17:43:45;8.70;99.90
29501;DHT22;16450;50.288;10.966;2024-02-21T17:46:47;8.60;99.90
29501;DHT22;16450;50.288;10.966;2024-02-21T17:49:49;8.60;99.90
29501;DHT22;16450;50.288;10.966;2024-02-21T17:52:52;8.60;99.90
29501;DHT22;16450;50.288;10.966;2024-02-21T17:55:57;8.60;99.90
29501;DHT22;16450;50.288;10.966;2024-02-21T17:58:59;8.60;99.90
29501;DHT22;16450;50.288;10.966;2024-02-21T18:02:01;8.60;99.90
29501;DHT22;16450;50.288;10.966;2024-02-21T18:05:03;8.60;99.90
29501;DHT22;16450;50.288;10.966;2024-02-21T18:08:06;8.60;99.90
29501;DHT22;16450;50.288;10.966;2024-02-21T18:11:09;8.60;99.90
29501;DHT22;16450;50.288;10.966;2024-02-21T18:14:12;8.60;99.90
29501;DHT22;16450;50.288;10.966;2024-02-21T18:17:14;8.60;99.90
29501;DHT22;16450;50.288;10.966;2024-02-21T18:20:18;8.60;99.90
29501;DHT22;16450;50.288;10.966;2024-02-21T18:23:20;8.50;99.90
29501;DHT22;16450;50.288;10.966;2024-02-21T18:26:22;8.50;99.90
29501;DHT22;16450;50.288;10.966;2024-02-21T18:29:24;8.50;99.90
29501;DHT22;16450;50.288;10.966;2024-02-21T18:32:40;8.50;99.90
29501;DHT22;16450;50.288;10.966;2024-02-21T18:35:42;8.50;99.90
29501;DHT22;16450;50.288;10.966;2024-02-21T18:38:44;8.50;99.90
29501;DHT22;16450;50.288;10.966;2024-02-21T18:41:46;8.50;99.90
29501;DHT22;16450;50.288;10.966;2024-02-21T18:44:47;8.50;99.90
29501;DHT22;16450;50.288;10.966;2024-02-21T18:47:51;8.50;99.90
29501;DHT22;16450;50.288;10.966;2024-02-21T18:50:53;8.40;99.90
29501;DHT22;16450;50.288;10.966;2024-02-21T18:53:55;8.50;99.90
29501;DHT22;16450;50.288;10.966;2024-02-21T18:56:57;8.50;99.90
29501;DHT22;16450;50.288;10.966;2024-02-21T18:59:59;8.40;99.90
29501;DHT22;16450;50.288;10.966;2024-02-21T19:03:01;8.40;99.90
29501;DHT22;16450;50.288;10.966;2024-02-21T19:06:03;8.40;99.90
29501;DHT22;16450;50.288;10.966;2024-02-21T19:09:05;8.40;99.90
29501;DHT22;16450;50.288;10.966;2024-02-21T19:12:07;8.30;99.90